Time;durP1;ratioP1;P1;durP2;ratioP2;P2;SDS_P1;SDS_P2;PMS_P1;PMS_P2;Temp;Humidity;BMP_temperature;BMP_pressure;BME280_temperature;BME280_humidity;BME280_pressure;Samples;Min_cycle;Max_cycle;Signal;HPM_P1;HPM_P2
2022/04/12 00:01:46;;;;;;;3.55;2.20;;;;;;;0.49;94.90;101812.38;5053123;28;20247;-43
2022/04/12 00:04:12;;;;;;;5.03;2.20;;;;;;;0.51;94.34;101797.47;5052825;28;20171;-46
2022/04/12 00:06:37;;;;;;;3.63;2.20;;;;;;;0.53;94.67;101808.06;5052517;28;20274;-44
2022/04/12 00:09:03;;;;;;;6.45;2.60;;;;;;;0.58;94.68;101802.00;5051312;28;20210;-44
2022/04/12 00:11:28;;;;;;;6.85;2.50;;;;;;;0.28;93.50;101798.78;5052332;28;20184;-43
2022/04/12 00:13:54;;;;;;;5.03;2.28;;;;;;;0.21;94.72;101810.94;5052621;28;20682;-42
2022/04/12 00:16:19;;;;;;;4.38;2.13;;;;;;;0.29;94.88;101797.94;5052608;28;20693;-46
2022/04/12 00:19:03;;;;;;;5.82;2.50;;;;;;;0.32;94.69;101800.63;5052154;28;20174;-42
2022/04/12 00:21:34;;;;;;;3.60;2.35;;;;;;;0.40;95.13;101802.53;5052080;28;20187;-47
2022/04/12 00:24:05;;;;;;;5.20;2.67;;;;;;;0.32;94.16;101814.69;5050024;28;20163;-47
2022/04/12 00:26:31;;;;;;;3.92;2.63;;;;;;;0.32;94.67;101798.88;5051525;28;20612;-46
2022/04/12 00:28:56;;;;;;;5.63;2.40;;;;;;;0.22;94.93;101817.09;5051256;28;20179;-46
2022/04/12 00:31:22;;;;;;;3.45;2.15;;;;;;;0.23;94.74;101803.97;5051392;28;20313;-46
2022/04/12 00:33:47;;;;;;;4.15;2.25;;;;;;;0.25;94.99;101802.25;5051245;28;20598;-47
2022/04/12 00:36:14;;;;;;;2.90;2.08;;;;;;;0.28;94.73;101806.69;5050278;28;20321;-49
2022/04/12 00:38:40;;;;;;;3.28;2.30;;;;;;;0.13;94.49;101804.63;5049944;28;20340;-48
2022/04/12 00:41:05;;;;;;;3.88;2.30;;;;;;;0.08;95.00;101814.19;5051624;28;20210;-47
2022/04/12 00:43:33;;;;;;;6.00;2.40;;;;;;;0.02;95.45;101812.31;5050569;28;20199;-45
2022/04/12 00:46:00;;;;;;;4.57;2.38;;;;;;;-0.06;95.86;101813.91;5051338;28;20269;-46
2022/04/12 00:48:30;;;;;;;4.72;2.45;;;;;;;-0.03;96.55;101813.97;5050591;28;20317;-48
2022/04/12 00:50:56;;;;;;;3.63;2.30;;;;;;;-0.04;96.10;101809.56;5049880;28;20335;-49
2022/04/12 00:53:24;;;;;;;4.78;2.50;;;;;;;-0.15;96.24;101808.44;5051351;28;20545;-49
2022/04/12 00:55:50;;;;;;;5.30;2.33;;;;;;;-0.08;96.66;101805.09;5050851;28;20199;-49
2022/04/12 00:58:16;;;;;;;3.22;2.15;;;;;;;-0.03;96.66;101800.78;5051013;28;20294;-48
2022/04/12 01:00:42;;;;;;;4.00;2.28;;;;;;;-0.10;97.03;101797.16;5050986;28;20183;-49
2022/04/12 01:03:07;;;;;;;4.75;1.98;;;;;;;-0.05;96.19;101807.78;5051075;28;20540;-46
2022/04/12 01:05:35;;;;;;;3.53;2.10;;;;;;;0.04;96.81;101805.31;5050459;28;20254;-48
2022/04/12 01:08:01;;;;;;;4.13;2.38;;;;;;;-0.07;95.90;101810.38;5050813;28;20391;-49
2022/04/12 01:10:27;;;;;;;4.72;2.25;;;;;;;-0.18;96.44;101801.34;5050940;28;20163;-48
2022/04/12 01:12:53;;;;;;;4.50;2.17;;;;;;;-0.31;95.72;101810.72;5050746;28;20175;-46
2022/04/12 01:15:23;;;;;;;3.58;2.45;;;;;;;-0.34;96.54;101809.78;5050532;28;20254;-48
2022/04/12 01:17:50;;;;;;;3.78;2.35;;;;;;;-0.33;96.32;101798.38;5049126;28;20199;-48
2022/04/12 01:20:19;;;;;;;2.42;2.17;;;;;;;-0.37;96.59;101804.44;5050767;28;20217;-49
2022/04/12 01:23:15;;;;;;;2.50;2.22;;;;;;;-0.43;96.86;101800.81;5051286;28;20187;-48
2022/04/12 01:25:41;;;;;;;5.22;2.33;;;;;;;-0.40;97.25;101807.00;5041433;28;20190;-49
2022/04/12 01:28:09;;;;;;;7.00;2.53;;;;;;;-0.50;97.18;101803.31;5050579;28;20210;-49
2022/04/12 01:30:35;;;;;;;4.70;2.80;;;;;;;-0.42;98.41;101796.44;5050126;28;20242;-47
2022/04/12 01:33:00;;;;;;;4.45;2.47;;;;;;;-0.36;98.08;101801.84;5050619;28;20658;-47
2022/04/12 01:35:26;;;;;;;3.97;2.30;;;;;;;-0.31;98.14;101799.31;5044354;28;20282;-48
2022/04/12 01:37:51;;;;;;;4.13;2.60;;;;;;;-0.45;97.89;101794.63;5048271;28;20209;-49
2022/04/12 01:40:17;;;;;;;3.85;2.75;;;;;;;-0.39;97.83;101783.38;5048757;28;20243;-48
2022/04/12 01:42:43;;;;;;;5.00;2.53;;;;;;;-0.34;98.67;101791.34;5048614;28;20258;-47
2022/04/12 01:45:08;;;;;;;3.70;2.28;;;;;;;-0.48;97.97;101789.31;5048113;28;20214;-47
2022/04/12 01:47:34;;;;;;;2.67;2.30;;;;;;;-0.60;98.29;101783.75;5049504;28;20199;-48
2022/04/12 01:50:00;;;;;;;4.45;2.50;;;;;;;-0.62;98.58;101785.47;5050418;28;20178;-47
2022/04/12 01:52:25;;;;;;;4.10;2.17;;;;;;;-0.63;98.89;101792.47;5050324;28;20175;-48
2022/04/12 01:54:51;;;;;;;3.35;2.45;;;;;;;-0.67;98.49;101784.47;5046892;28;20179;-48
2022/04/12 01:57:16;;;;;;;3.25;2.70;;;;;;;-0.58;99.13;101779.41;5050011;28;20611;-48
2022/04/12 01:59:44;;;;;;;3.58;2.58;;;;;;;-0.49;99.39;101782.25;5050047;28;20635;-48
2022/04/12 02:02:10;;;;;;;3.40;2.65;;;;;;;-0.60;99.54;101773.22;5030520;28;20633;-47
2022/04/12 02:04:35;;;;;;;4.35;2.42;;;;;;;-0.55;99.28;101766.31;5049223;28;20171;-48
2022/04/12 02:07:01;;;;;;;5.43;2.60;;;;;;;-0.45;99.98;101770.06;5047646;28;20704;-49
2022/04/12 02:09:26;;;;;;;3.72;2.47;;;;;;;-0.46;98.73;101776.16;5048678;28;20359;-48
2022/04/12 02:11:55;;;;;;;5.13;2.42;;;;;;;-0.45;98.84;101773.56;5049736;28;20226;-47
2022/04/12 02:14:21;;;;;;;2.95;2.75;;;;;;;-0.35;98.87;101776.41;5049413;28;20549;-49
2022/04/12 02:16:47;;;;;;;6.40;2.78;;;;;;;-0.33;98.78;101770.34;5049330;28;20221;-48
2022/04/12 02:19:13;;;;;;;4.35;2.20;;;;;;;-0.48;97.89;101775.22;5049536;28;20168;-48
2022/04/12 02:21:38;;;;;;;2.67;2.20;;;;;;;-0.41;98.63;101782.44;5049798;28;20635;-46
2022/04/12 02:24:04;;;;;;;2.53;2.25;;;;;;;-0.29;98.76;101769.53;5049344;28;20164;-48
2022/04/12 02:26:29;;;;;;;3.50;2.00;;;;;;;-0.30;98.01;101764.25;5049676;28;20643;-49
2022/04/12 02:28:55;;;;;;;4.95;2.20;;;;;;;-0.43;97.46;101765.72;5049735;28;20178;-49
2022/04/12 02:31:20;;;;;;;4.90;2.15;;;;;;;-0.37;97.54;101757.97;5048527;28;20172;-48
2022/04/12 02:33:46;;;;;;;3.25;2.03;;;;;;;-0.28;97.83;101758.16;5049421;28;20167;-48
2022/04/12 02:36:11;;;;;;;6.20;2.58;;;;;;;-0.42;97.92;101752.59;5049345;28;20178;-47
2022/04/12 02:38:37;;;;;;;5.20;2.38;;;;;;;-0.57;97.48;101761.88;5049706;28;20243;-49
2022/04/12 02:41:02;;;;;;;4.80;2.63;;;;;;;-0.46;98.70;101752.47;5049835;28;20252;-47
2022/04/12 02:43:28;;;;;;;5.30;2.55;;;;;;;-0.36;98.23;101758.84;5049560;28;20248;-47
2022/04/12 02:45:53;;;;;;;3.47;2.47;;;;;;;-0.29;98.67;101751.09;5049491;28;20155;-48
2022/04/12 02:48:19;;;;;;;5.45;3.22;;;;;;;-0.45;98.48;101736.72;5049311;28;20321;-48
2022/04/12 02:50:44;;;;;;;4.90;2.47;;;;;;;-0.38;99.35;101747.38;5049936;28;20189;-49
2022/04/12 02:53:10;;;;;;;4.10;2.78;;;;;;;-0.34;99.12;101746.59;5049569;28;20159;-48
2022/04/12 02:55:35;;;;;;;4.15;2.60;;;;;;;-0.50;99.66;101733.09;5049051;28;20179;-48
2022/04/12 02:58:00;;;;;;;3.75;2.92;;;;;;;-0.39;100.00;101740.31;5049382;28;20183;-47
2022/04/12 03:00:26;;;;;;;4.70;2.67;;;;;;;-0.46;100.00;101737.59;5048615;28;20545;-48
2022/04/12 03:02:51;;;;;;;6.78;2.88;;;;;;;-0.34;100.00;101741.34;5049337;28;20183;-48
2022/04/12 03:05:17;;;;;;;7.88;2.85;;;;;;;-0.33;100.00;101733.47;5047837;28;20189;-49
2022/04/12 03:07:42;;;;;;;7.20;3.17;;;;;;;-0.08;100.00;101726.06;5053107;28;20211;-50
2022/04/12 03:10:08;;;;;;;5.53;2.92;;;;;;;-0.04;100.00;101725.28;5053678;28;20181;-50
2022/04/12 03:12:33;;;;;;;5.32;2.50;;;;;;;0.07;99.62;101717.56;5053248;28;20179;-48
2022/04/12 03:15:01;;;;;;;4.00;2.78;;;;;;;0.05;98.77;101719.28;5052919;28;20191;-51
2022/04/12 03:17:27;;;;;;;5.95;2.83;;;;;;;0.07;98.51;101715.81;5053321;28;20285;-50
2022/04/12 03:19:52;;;;;;;3.92;2.10;;;;;;;0.13;98.39;101721.22;5052896;28;20167;-48
2022/04/12 03:22:18;;;;;;;4.75;2.85;;;;;;;0.11;97.96;101720.31;5053273;28;20218;-50
2022/04/12 03:24:45;;;;;;;5.00;2.55;;;;;;;0.17;97.71;101704.56;5052608;28;20316;-48
2022/04/12 03:27:10;;;;;;;6.55;2.78;;;;;;;0.28;97.54;101717.06;5052859;28;20621;-49
2022/04/12 03:29:36;;;;;;;3.40;2.38;;;;;;;0.29;97.21;101716.22;5052842;28;20222;-50
2022/04/12 03:32:01;;;;;;;9.27;2.40;;;;;;;0.34;96.43;101717.19;5052507;28;20175;-49
2022/04/12 03:34:27;;;;;;;3.30;2.50;;;;;;;0.30;95.98;101731.16;5052586;28;20262;-48
2022/04/12 03:36:52;;;;;;;3.80;2.33;;;;;;;0.36;96.42;101721.63;5048211;28;20208;-49
2022/04/12 03:39:18;;;;;;;4.15;2.35;;;;;;;0.38;95.81;101732.19;5052366;28;20188;-49
2022/04/12 03:41:46;;;;;;;5.95;2.03;;;;;;;0.39;95.54;101710.25;5052884;28;20201;-50
2022/04/12 03:44:12;;;;;;;4.25;2.00;;;;;;;0.40;95.04;101723.47;5051918;28;20187;-48
2022/04/12 03:46:37;;;;;;;4.60;2.47;;;;;;;0.35;95.42;101730.41;5053033;28;20199;-48
2022/04/12 03:49:03;;;;;;;5.13;2.30;;;;;;;0.32;95.55;101730.34;5052294;28;20545;-49
2022/04/12 03:51:28;;;;;;;2.58;1.98;;;;;;;0.29;95.59;101725.00;5051317;28;20163;-48
2022/04/12 03:53:53;;;;;;;4.93;2.63;;;;;;;0.35;95.41;101732.13;5051396;28;20246;-48
2022/04/12 03:56:19;;;;;;;4.85;2.30;;;;;;;0.39;95.63;101729.59;5051959;28;20259;-49
2022/04/12 03:58:44;;;;;;;4.20;2.13;;;;;;;0.38;95.09;101738.34;5051724;28;20430;-49
2022/04/12 04:01:10;;;;;;;3.05;1.85;;;;;;;0.37;95.15;101746.22;5052026;28;20151;-47
2022/04/12 04:03:35;;;;;;;3.75;2.05;;;;;;;0.40;94.99;101743.66;5052078;28;20229;-49
2022/04/12 04:06:02;;;;;;;4.85;2.70;;;;;;;0.31;94.65;101739.13;5052029;28;20242;-49
2022/04/12 04:08:27;;;;;;;4.60;1.90;;;;;;;0.30;94.83;101753.13;5051486;28;20682;-49
2022/04/12 04:10:53;;;;;;;2.92;2.05;;;;;;;0.32;94.75;101750.53;5052215;28;20175;-48
2022/04/12 04:13:18;;;;;;;3.47;1.73;;;;;;;0.23;95.35;101745.09;5051981;28;20186;-48
2022/04/12 04:15:45;;;;;;;1.92;1.83;;;;;;;0.24;94.67;101731.03;5051574;28;20274;-48
2022/04/12 04:18:11;;;;;;;4.43;2.15;;;;;;;0.29;94.92;101734.69;5051053;28;20669;-49
2022/04/12 04:20:36;;;;;;;5.35;2.28;;;;;;;0.27;94.83;101746.94;5051733;28;20229;-49
2022/04/12 04:23:02;;;;;;;4.57;3.53;;;;;;;0.30;95.57;101737.31;5051659;28;20225;-49
2022/04/12 04:25:28;;;;;;;5.00;3.30;;;;;;;0.26;95.98;101729.34;5051466;28;20163;-48
2022/04/12 04:27:54;;;;;;;6.93;3.22;;;;;;;0.18;96.38;101732.72;5051179;28;20235;-45
2022/04/12 04:30:20;;;;;;;4.72;3.33;;;;;;;0.19;96.67;101728.34;5049759;28;20175;-45
2022/04/12 04:32:46;;;;;;;3.72;3.05;;;;;;;0.25;97.16;101724.94;5051033;28;20682;-46
2022/04/12 04:35:12;;;;;;;4.45;2.85;;;;;;;0.31;97.96;101725.06;5050902;28;20184;-48
2022/04/12 04:37:56;;;;;;;3.63;3.03;;;;;;;0.34;97.82;101733.88;5051000;28;20191;-45
2022/04/12 04:40:22;;;;;;;2.90;2.42;;;;;;;0.39;97.55;101742.78;5051197;28;20171;-45
2022/04/12 04:42:51;;;;;;;3.92;2.70;;;;;;;0.38;97.67;101745.38;5051374;28;20168;-48
2022/04/12 04:45:17;;;;;;;4.22;2.60;;;;;;;0.44;98.06;101742.88;5050809;28;20175;-45
2022/04/12 04:47:56;;;;;;;3.83;2.42;;;;;;;0.50;97.35;101747.34;5050966;28;20703;-45
2022/04/12 04:50:24;;;;;;;6.22;2.70;;;;;;;0.40;97.60;101748.94;5030214;28;20156;-47
2022/04/12 04:52:51;;;;;;;5.13;2.92;;;;;;;0.55;97.19;101753.59;5029836;28;20180;-49
2022/04/12 04:55:17;;;;;;;5.43;2.50;;;;;;;0.63;97.69;101761.63;5029435;28;20195;-46
2022/04/12 04:57:43;;;;;;;6.25;2.22;;;;;;;0.81;97.78;101754.06;5030802;28;20188;-49
2022/04/12 05:00:17;;;;;;;4.18;2.33;;;;;;;0.97;96.87;101761.34;5031527;28;20183;-47
2022/04/12 05:02:48;;;;;;;4.50;2.70;;;;;;;0.99;96.67;101762.25;5031203;28;20222;-46
2022/04/12 05:05:14;;;;;;;2.53;2.00;;;;;;;1.19;96.63;101761.69;5030688;28;20627;-49
2022/04/12 05:07:41;;;;;;;3.97;2.20;;;;;;;1.28;96.35;101764.47;5030763;28;20203;-51
2022/04/12 05:10:09;;;;;;;6.55;2.50;;;;;;;1.22;95.85;101760.00;5031046;28;20692;-46
2022/04/12 05:12:34;;;;;;;3.40;2.03;;;;;;;1.21;95.35;101763.47;5029617;28;20168;-46
2022/04/12 05:15:00;;;;;;;6.28;2.55;;;;;;;1.24;95.52;101762.63;5030833;28;20282;-52
2022/04/12 05:17:27;;;;;;;3.88;2.28;;;;;;;1.26;95.52;101752.09;5030957;28;20238;-45
2022/04/12 05:19:53;;;;;;;4.45;2.58;;;;;;;1.33;95.26;101765.41;5031072;28;20176;-49
2022/04/12 05:22:19;;;;;;;5.80;2.47;;;;;;;1.51;95.16;101756.88;5030558;28;20237;-48
2022/04/12 05:24:46;;;;;;;9.05;2.50;;;;;;;1.53;95.03;101760.44;5030697;28;20259;-48
2022/04/12 05:27:11;;;;;;;6.57;2.92;;;;;;;1.64;95.03;101758.81;5030592;28;20546;-47
2022/04/12 05:29:37;;;;;;;3.10;2.20;;;;;;;1.71;94.43;101767.72;5029421;28;20173;-48
2022/04/12 05:32:03;;;;;;;5.00;2.90;;;;;;;1.80;94.44;101753.75;5030863;28;20188;-51
2022/04/12 05:34:28;;;;;;;3.85;2.45;;;;;;;1.97;94.16;101753.94;5030582;28;20253;-52
2022/04/12 05:36:54;;;;;;;5.45;2.63;;;;;;;2.19;93.56;101763.00;5030878;28;20334;-46
2022/04/12 05:39:19;;;;;;;7.57;3.08;;;;;;;2.37;92.73;101765.84;5030448;28;20179;-47
2022/04/12 05:41:44;;;;;;;6.63;3.33;;;;;;;2.57;91.91;101770.47;5030614;28;20183;-49
2022/04/12 05:44:10;;;;;;;4.55;2.78;;;;;;;2.72;91.10;101775.91;5030475;28;20168;-46
2022/04/12 05:46:35;;;;;;;9.32;3.13;;;;;;;2.88;90.19;101774.25;5028964;28;20191;-46
2022/04/12 05:49:01;;;;;;;10.95;2.90;;;;;;;3.21;89.41;101763.03;5037606;28;20614;-47
2022/04/12 05:51:26;;;;;;;9.02;3.30;;;;;;;3.61;87.74;101765.09;5050437;28;20249;-47
2022/04/12 05:53:51;;;;;;;12.48;3.63;;;;;;;4.01;86.08;101771.44;5049207;28;20653;-47
2022/04/12 05:56:17;;;;;;;9.88;3.17;;;;;;;4.27;85.08;101768.00;5049802;28;20658;-47
2022/04/12 05:58:43;;;;;;;9.30;3.70;;;;;;;4.64;84.30;101757.47;5048090;28;20194;-49
2022/04/12 06:01:08;;;;;;;6.18;3.65;;;;;;;4.86;83.08;101767.22;5048557;28;20167;-47
2022/04/12 06:03:34;;;;;;;7.82;3.58;;;;;;;5.14;81.82;101760.13;5050195;28;20262;-49
2022/04/12 06:05:59;;;;;;;5.57;3.42;;;;;;;5.00;80.42;101772.50;5048816;28;20634;-44
2022/04/12 06:08:24;;;;;;;5.80;3.10;;;;;;;5.18;81.11;101771.63;5049743;28;20230;-44
2022/04/12 06:10:50;;;;;;;4.38;3.15;;;;;;;5.09;79.64;101761.88;5049496;28;20186;-49
2022/04/12 06:13:15;;;;;;;5.60;3.30;;;;;;;5.36;78.79;101774.28;5048440;28;20164;-46
2022/04/12 06:15:41;;;;;;;7.78;3.35;;;;;;;5.52;78.26;101766.25;5048312;28;20229;-46
2022/04/12 06:18:07;;;;;;;4.72;2.88;;;;;;;5.44;79.30;101773.38;5049614;28;20559;-47
2022/04/12 06:20:33;;;;;;;5.07;3.22;;;;;;;5.33;78.83;101773.38;5049701;28;20183;-47
2022/04/12 06:22:58;;;;;;;7.70;2.90;;;;;;;5.35;78.83;101783.09;5049603;28;20287;-43
2022/04/12 06:25:23;;;;;;;6.07;3.65;;;;;;;5.33;78.96;101786.66;5049876;28;20254;-43
2022/04/12 06:27:51;;;;;;;5.35;2.50;;;;;;;5.19;78.56;101773.41;5049825;28;20670;-43
2022/04/12 06:30:19;;;;;;;13.55;3.45;;;;;;;5.18;78.45;101781.38;5049710;28;20163;-42
2022/04/12 06:32:45;;;;;;;7.90;3.17;;;;;;;5.43;77.85;101776.91;5050001;28;20167;-45
2022/04/12 06:35:12;;;;;;;8.85;3.00;;;;;;;5.30;77.87;101760.97;5049328;28;20669;-44
2022/04/12 06:37:39;;;;;;;7.18;3.05;;;;;;;5.42;78.16;101773.34;5049879;28;20249;-44
2022/04/12 06:40:07;;;;;;;5.28;2.47;;;;;;;5.33;77.66;101766.28;5050050;28;20156;-44
2022/04/12 06:42:34;;;;;;;5.13;2.40;;;;;;;5.30;77.16;101770.75;5049710;28;20213;-42
2022/04/12 06:44:59;;;;;;;3.72;2.53;;;;;;;5.38;78.42;101755.69;5049768;28;20235;-43
2022/04/12 06:47:25;;;;;;;5.53;2.55;;;;;;;5.43;77.46;101768.94;5049998;28;20322;-42
2022/04/12 06:49:51;;;;;;;7.70;2.83;;;;;;;5.48;76.69;101772.47;5065487;28;20186;-45
2022/04/12 06:52:19;;;;;;;11.68;2.58;;;;;;;5.61;76.31;101766.22;5070473;28;20254;-43
2022/04/12 06:54:44;;;;;;;4.90;2.78;;;;;;;5.66;76.17;101769.75;5069666;28;20179;-43
2022/04/12 06:57:10;;;;;;;4.88;2.35;;;;;;;5.74;76.25;101777.72;5069986;28;20179;-44
2022/04/12 06:59:36;;;;;;;3.70;2.20;;;;;;;5.71;75.85;101778.63;5059946;28;20689;-43
2022/04/12 07:02:02;;;;;;;6.15;2.47;;;;;;;5.64;75.42;101783.94;5046909;28;20182;-43
2022/04/12 07:04:31;;;;;;;6.75;2.45;;;;;;;5.67;76.06;101776.88;5048551;28;20439;-44
2022/04/12 07:06:57;;;;;;;2.63;2.20;;;;;;;5.67;75.30;101779.53;5049598;28;20211;-44
2022/04/12 07:09:23;;;;;;;7.75;2.30;;;;;;;5.72;74.71;101767.09;5049854;28;20172;-44
2022/04/12 07:11:50;;;;;;;4.10;2.20;;;;;;;5.75;75.19;101782.13;5049333;28;20715;-43
2022/04/12 07:14:16;;;;;;;4.75;2.33;;;;;;;5.73;75.04;101776.84;5048806;28;20163;-45
2022/04/12 07:16:41;;;;;;;3.03;2.30;;;;;;;5.71;74.87;101775.97;5049687;28;20275;-44
2022/04/12 07:19:07;;;;;;;4.50;2.13;;;;;;;5.86;75.11;101772.38;5049662;28;20175;-44
2022/04/12 07:24:07;;;;;;;4.43;2.33;;;;;;;5.91;74.73;101765.25;5065822;28;20261;-44
2022/04/12 07:26:33;;;;;;;5.05;2.35;;;;;;;5.97;74.23;101775.91;5067617;28;20214;-43
2022/04/12 07:28:59;;;;;;;5.00;2.45;;;;;;;6.12;73.82;101768.72;5068798;28;20209;-45
2022/04/12 07:31:25;;;;;;;4.32;2.63;;;;;;;6.21;73.61;101770.47;5069095;28;20228;-44
2022/04/12 07:33:51;;;;;;;7.03;2.47;;;;;;;6.28;73.13;101766.91;5067561;28;20632;-43
2022/04/12 07:36:16;;;;;;;6.03;2.28;;;;;;;6.46;73.18;101756.13;5068422;28;20249;-43
2022/04/12 07:38:42;;;;;;;7.40;2.78;;;;;;;6.57;72.33;101753.41;5066956;28;20580;-45
2022/04/12 07:41:09;;;;;;;5.82;2.78;;;;;;;6.69;72.30;101757.75;5067524;28;20171;-44
2022/04/12 07:43:34;;;;;;;8.68;2.63;;;;;;;6.66;72.02;101765.78;5068230;28;20202;-44
2022/04/12 07:46:00;;;;;;;3.22;2.33;;;;;;;6.86;71.50;101757.63;5068359;28;20203;-43
2022/04/12 07:48:25;;;;;;;5.30;2.40;;;;;;;6.73;70.76;101764.81;5067295;28;20221;-42
2022/04/12 07:50:50;;;;;;;5.95;2.40;;;;;;;6.68;70.98;101763.97;5066890;28;20201;-45
2022/04/12 07:53:16;;;;;;;6.55;2.28;;;;;;;6.65;71.20;101764.00;5068335;28;20625;-43
2022/04/12 07:55:41;;;;;;;5.30;2.10;;;;;;;6.75;71.43;101766.56;5071189;28;20649;-42
2022/04/12 07:58:06;;;;;;;6.22;2.60;;;;;;;6.85;70.80;101780.72;5032852;28;20501;-44
2022/04/12 08:00:32;;;;;;;4.07;2.75;;;;;;;6.97;70.70;101779.72;5066983;28;20178;-45
2022/04/12 08:02:57;;;;;;;5.38;2.90;;;;;;;6.94;70.41;101793.97;5071102;28;20171;-44
2022/04/12 08:05:23;;;;;;;4.28;2.72;;;;;;;7.04;70.77;101789.47;5070392;28;20193;-46
2022/04/12 08:07:49;;;;;;;5.15;2.60;;;;;;;6.92;70.06;101786.88;5071191;28;20310;-45
2022/04/12 08:10:15;;;;;;;3.22;2.63;;;;;;;7.09;70.52;101787.63;5071091;28;20187;-46
2022/04/12 08:12:42;;;;;;;4.40;2.85;;;;;;;7.03;69.49;101782.34;5070949;28;20167;-44
2022/04/12 08:15:09;;;;;;;6.47;2.70;;;;;;;7.13;69.34;101783.19;5071577;28;20186;-45
2022/04/12 08:17:34;;;;;;;5.35;2.75;;;;;;;7.36;69.45;101781.16;5072775;28;20285;-45
2022/04/12 08:20:00;;;;;;;3.97;2.63;;;;;;;7.43;69.29;101789.97;5071996;28;20320;-44
2022/04/12 08:22:25;;;;;;;5.85;3.28;;;;;;;7.56;69.38;101794.28;5070462;28;20186;-45
2022/04/12 08:24:51;;;;;;;5.40;2.67;;;;;;;7.86;69.07;101788.66;5071733;28;20635;-42
2022/04/12 08:27:16;;;;;;;6.03;2.58;;;;;;;7.93;68.31;101783.22;5071748;28;20213;-44
2022/04/12 08:29:41;;;;;;;5.38;2.67;;;;;;;7.99;67.95;101766.25;5071689;28;20190;-46
2022/04/12 08:32:07;;;;;;;4.47;2.80;;;;;;;8.02;66.51;101768.88;5071896;28;20274;-45
2022/04/12 08:34:32;;;;;;;7.20;2.90;;;;;;;8.19;66.19;101768.66;5071595;28;20182;-45
2022/04/12 08:36:58;;;;;;;8.00;2.92;;;;;;;8.21;65.64;101774.88;5072032;28;20198;-44
2022/04/12 08:39:23;;;;;;;5.57;2.80;;;;;;;8.59;65.73;101763.69;5071322;28;20159;-45
2022/04/12 08:41:51;;;;;;;4.88;2.72;;;;;;;8.50;64.20;101761.13;5053059;28;20197;-44
2022/04/12 08:44:18;;;;;;;6.43;3.22;;;;;;;8.59;64.53;101761.03;5070269;28;20190;-43
2022/04/12 08:46:47;;;;;;;4.32;3.05;;;;;;;8.43;63.71;101770.16;5051847;28;20673;-44
2022/04/12 08:49:14;;;;;;;5.43;3.05;;;;;;;8.47;64.52;101758.53;5069370;28;20175;-44
2022/04/12 08:51:39;;;;;;;6.20;3.15;;;;;;;8.55;64.15;101761.06;5069909;28;20436;-48
2022/04/12 08:54:06;;;;;;;3.90;2.92;;;;;;;8.56;63.95;101768.19;5069862;28;20538;-51
2022/04/12 08:56:32;;;;;;;4.90;3.28;;;;;;;8.65;63.30;101771.59;5069974;28;20244;-48
2022/04/12 08:58:58;;;;;;;5.50;3.53;;;;;;;8.94;63.63;101764.91;5070213;28;20205;-48
2022/04/12 09:01:24;;;;;;;6.88;3.55;;;;;;;8.82;62.52;101757.09;5071223;28;20582;-50
2022/04/12 09:03:49;;;;;;;7.82;3.60;;;;;;;8.81;62.89;101766.91;5071010;28;20228;-50
2022/04/12 09:06:15;;;;;;;10.88;4.00;;;;;;;8.59;63.46;101763.69;5070361;28;20202;-48
2022/04/12 09:08:40;;;;;;;7.63;3.63;;;;;;;8.91;63.88;101767.63;5070610;28;20195;-48
2022/04/12 09:11:07;;;;;;;7.28;3.60;;;;;;;8.84;63.47;101764.19;5070685;28;20597;-51
2022/04/12 09:13:35;;;;;;;5.55;3.50;;;;;;;9.11;62.84;101761.09;5070913;28;20183;-50
2022/04/12 09:16:00;;;;;;;3.92;3.10;;;;;;;9.13;62.05;101754.78;5070338;28;20577;-48
2022/04/12 09:18:43;;;;;;;7.35;3.90;;;;;;;9.15;61.59;101750.31;5070818;28;20187;-48
2022/04/12 09:21:21;;;;;;;6.20;3.60;;;;;;;9.23;62.23;101748.38;5070732;28;20194;-48
2022/04/12 09:23:52;;;;;;;4.63;3.30;;;;;;;9.48;60.90;101740.78;5070104;28;20178;-50
2022/04/12 09:26:28;;;;;;;6.85;4.00;;;;;;;9.36;60.95;101746.38;5070376;28;20166;-48
2022/04/12 09:28:56;;;;;;;6.78;3.75;;;;;;;9.85;61.21;101725.78;5070014;28;20216;-50
2022/04/12 09:31:22;;;;;;;4.68;3.58;;;;;;;10.29;60.12;101724.84;5052623;28;20222;-47
2022/04/12 09:33:49;;;;;;;4.30;2.92;;;;;;;10.42;58.46;101720.09;5070139;28;20541;-49
2022/04/12 09:36:15;;;;;;;5.90;3.20;;;;;;;10.76;59.76;101719.31;5069224;28;20182;-48
2022/04/12 09:38:42;;;;;;;4.47;3.35;;;;;;;10.50;58.13;101723.47;5070137;28;20179;-47
2022/04/12 09:41:19;;;;;;;5.18;3.65;;;;;;;10.18;57.38;101717.94;5070015;28;20260;-48
2022/04/12 09:44:15;;;;;;;3.97;3.47;;;;;;;10.07;57.83;101718.19;5070174;28;20221;-47
2022/04/12 09:46:42;;;;;;;4.05;3.40;;;;;;;10.38;58.18;101728.25;5051467;28;20182;-47
2022/04/12 09:49:08;;;;;;;4.93;3.70;;;;;;;10.41;57.90;101718.34;5069342;28;20201;-46
2022/04/12 09:51:37;;;;;;;5.18;3.25;;;;;;;10.87;57.44;101721.72;5069952;28;20566;-48
2022/04/12 09:54:06;;;;;;;4.88;3.35;;;;;;;10.97;56.55;101717.84;5069578;28;20183;-49
2022/04/12 09:56:33;;;;;;;4.60;3.50;;;;;;;11.09;56.02;101704.16;5069631;28;20187;-47
2022/04/12 09:59:06;;;;;;;3.90;3.45;;;;;;;11.30;55.39;101701.78;5069561;28;20244;-49
2022/04/12 10:01:39;;;;;;;5.38;3.42;;;;;;;11.61;55.03;101700.94;5069724;28;20293;-47
2022/04/12 10:04:07;;;;;;;5.53;3.38;;;;;;;10.95;53.71;101698.25;5052998;28;20182;-49
2022/04/12 10:06:39;;;;;;;4.38;3.53;;;;;;;11.20;56.16;101700.31;5051237;28;20193;-49
2022/04/12 10:09:07;;;;;;;6.00;3.58;;;;;;;11.48;54.43;101698.63;5051231;28;20194;-48
2022/04/12 10:11:35;;;;;;;5.65;3.92;;;;;;;11.47;53.93;101688.78;5069805;28;20181;-48
2022/04/12 10:14:01;;;;;;;4.38;3.40;;;;;;;11.41;52.96;101688.97;5069430;28;20193;-47
2022/04/12 10:16:27;;;;;;;5.07;3.67;;;;;;;11.45;52.89;101685.28;5068579;28;20175;-48
2022/04/12 10:18:54;;;;;;;3.40;3.10;;;;;;;11.60;52.82;101692.00;5069592;28;20194;-49
2022/04/12 10:21:22;;;;;;;5.50;3.45;;;;;;;11.91;53.84;101693.84;5069842;28;20178;-47
2022/04/12 10:23:53;;;;;;;8.70;3.88;;;;;;;12.10;52.90;101681.59;5069263;28;20182;-48
2022/04/12 10:26:21;;;;;;;5.03;3.55;;;;;;;11.87;53.03;101693.03;5068936;28;20516;-47
2022/04/12 10:28:52;;;;;;;4.65;3.65;;;;;;;11.48;52.79;101689.69;5069342;28;20344;-44
2022/04/12 10:31:21;;;;;;;6.95;4.22;;;;;;;11.90;52.15;101668.78;5069266;28;20209;-44
2022/04/12 10:34:04;;;;;;;6.13;4.03;;;;;;;11.83;52.29;101667.19;5069688;28;20228;-48
2022/04/12 10:36:57;;;;;;;6.10;3.78;;;;;;;12.14;52.56;101663.59;5068989;28;20171;-46
2022/04/12 10:39:29;;;;;;;4.65;4.00;;;;;;;12.08;52.10;101667.34;5069505;28;20190;-48
2022/04/12 10:41:56;;;;;;;6.90;3.97;;;;;;;12.22;52.35;101652.59;5069397;28;20206;-48
2022/04/12 10:44:22;;;;;;;6.32;3.95;;;;;;;11.98;52.41;101659.63;5069343;28;20175;-44
2022/04/12 10:46:50;;;;;;;6.53;4.18;;;;;;;12.44;52.83;101659.06;5068956;28;20198;-46
2022/04/12 10:49:20;;;;;;;7.53;4.40;;;;;;;12.16;52.68;101653.69;5050559;28;20175;-46
2022/04/12 10:51:54;;;;;;;10.60;4.18;;;;;;;12.05;51.99;101639.72;5069484;28;20649;-46
2022/04/12 10:54:35;;;;;;;6.93;4.57;;;;;;;11.99;52.16;101639.91;5069300;28;20181;-46
2022/04/12 10:57:19;;;;;;;12.20;4.65;;;;;;;12.11;52.71;101634.13;5069625;28;20243;-47
2022/04/12 11:00:08;;;;;;;6.35;4.28;;;;;;;12.44;51.89;101629.50;5068592;28;20485;-47
2022/04/12 11:02:45;;;;;;;9.23;5.20;;;;;;;12.07;49.42;101627.09;5068878;28;20568;-48
2022/04/12 11:05:32;;;;;;;7.38;4.97;;;;;;;12.27;50.19;101615.72;5050978;28;20554;-46
2022/04/12 11:07:58;;;;;;;6.22;5.00;;;;;;;12.10;51.36;101617.13;5034053;28;20198;-45
2022/04/12 11:10:24;;;;;;;6.55;5.03;;;;;;;12.04;52.05;101614.63;5069170;28;20175;-47
2022/04/12 11:13:01;;;;;;;8.32;5.57;;;;;;;11.85;52.33;101606.28;5069180;28;20167;-45
2022/04/12 11:15:31;;;;;;;9.52;5.45;;;;;;;11.71;51.83;101606.69;5068901;28;20174;-46
2022/04/12 11:18:16;;;;;;;6.40;5.72;;;;;;;11.73;52.96;101603.94;5069024;28;20640;-45
2022/04/12 11:20:45;;;;;;;7.57;5.43;;;;;;;12.01;51.23;101601.31;5068560;28;20258;-48
2022/04/12 11:23:13;;;;;;;9.13;5.90;;;;;;;12.03;51.11;101598.59;5068921;28;20261;-47
2022/04/12 11:25:48;;;;;;;9.60;6.32;;;;;;;11.87;50.13;101592.78;5068462;28;20174;-45
2022/04/12 11:28:15;;;;;;;6.78;5.72;;;;;;;12.04;50.38;101576.16;5071979;28;20278;-48
2022/04/12 11:30:41;;;;;;;9.23;6.00;;;;;;;11.95;50.39;101571.97;5072759;28;20220;-48
2022/04/12 11:33:08;;;;;;;9.60;6.20;;;;;;;12.03;50.97;101563.69;5072166;28;20371;-49